sensor_id;sensor_type;location;lat;lon;timestamp;pressure;altitude;pressure_sealevel;temperature;humidity
29315;BME280;16320;53.954;9.506;2023-06-05T00:01:00;102147.44;;;10.19;100.00
29315;BME280;16320;53.954;9.506;2023-06-05T00:04:06;102150.13;;;10.18;100.00
29315;BME280;16320;53.954;9.506;2023-06-05T00:07:10;102153.72;;;10.14;100.00
29315;BME280;16320;53.954;9.506;2023-06-05T00:10:15;102150.34;;;10.08;100.00
29315;BME280;16320;53.954;9.506;2023-06-05T00:13:19;102151.34;;;10.04;100.00
29315;BME280;16320;53.954;9.506;2023-06-05T00:16:24;102155.91;;;9.98;100.00
29315;BME280;16320;53.954;9.506;2023-06-05T00:19:29;102150.66;;;9.98;100.00
29315;BME280;16320;53.954;9.506;2023-06-05T00:22:35;102157.66;;;9.97;100.00
29315;BME280;16320;53.954;9.506;2023-06-05T00:25:39;102154.22;;;9.95;100.00
29315;BME280;16320;53.954;9.506;2023-06-05T00:28:43;102152.59;;;9.91;100.00
29315;BME280;16320;53.954;9.506;2023-06-05T00:31:48;102143.94;;;9.86;100.00
29315;BME280;16320;53.954;9.506;2023-06-05T00:34:53;102153.56;;;9.87;100.00
29315;BME280;16320;53.954;9.506;2023-06-05T00:37:58;102144.88;;;9.85;100.00
29315;BME280;16320;53.954;9.506;2023-06-05T00:41:02;102147.56;;;9.82;100.00
29315;BME280;16320;53.954;9.506;2023-06-05T00:44:07;102151.91;;;9.83;100.00
29315;BME280;16320;53.954;9.506;2023-06-05T00:47:11;102153.59;;;9.85;100.00
29315;BME280;16320;53.954;9.506;2023-06-05T00:50:16;102152.91;;;9.79;100.00
29315;BME280;16320;53.954;9.506;2023-06-05T00:53:21;102153.81;;;9.76;100.00
29315;BME280;16320;53.954;9.506;2023-06-05T00:56:26;102145.97;;;9.75;100.00
29315;BME280;16320;53.954;9.506;2023-06-05T00:59:31;102152.06;;;9.77;100.00
29315;BME280;16320;53.954;9.506;2023-06-05T01:02:40;102158.13;;;9.79;100.00
29315;BME280;16320;53.954;9.506;2023-06-05T01:05:45;102148.53;;;9.78;100.00
29315;BME280;16320;53.954;9.506;2023-06-05T01:08:53;102152.25;;;9.69;100.00
29315;BME280;16320;53.954;9.506;2023-06-05T01:12:17;102151.34;;;9.71;100.00
29315;BME280;16320;53.954;9.506;2023-06-05T01:15:25;102147.06;;;9.67;100.00
29315;BME280;16320;53.954;9.506;2023-06-05T01:18:37;102148.81;;;9.67;100.00
29315;BME280;16320;53.954;9.506;2023-06-05T01:21:44;102146.25;;;9.65;100.00
29315;BME280;16320;53.954;9.506;2023-06-05T01:25:08;102149.75;;;9.64;100.00
29315;BME280;16320;53.954;9.506;2023-06-05T01:28:17;102146.25;;;9.65;100.00
29315;BME280;16320;53.954;9.506;2023-06-05T01:31:25;102138.44;;;9.62;100.00
29315;BME280;16320;53.954;9.506;2023-06-05T01:34:31;102138.50;;;9.59;100.00
29315;BME280;16320;53.954;9.506;2023-06-05T01:37:49;102136.03;;;9.53;100.00
29315;BME280;16320;53.954;9.506;2023-06-05T01:40:54;102133.41;;;9.53;100.00
29315;BME280;16320;53.954;9.506;2023-06-05T01:43:59;102132.56;;;9.52;100.00
29315;BME280;16320;53.954;9.506;2023-06-05T01:47:06;102125.47;;;9.56;100.00
29315;BME280;16320;53.954;9.506;2023-06-05T01:50:11;102122.69;;;9.62;100.00
29315;BME280;16320;53.954;9.506;2023-06-05T01:53:18;102127.13;;;9.60;100.00
29315;BME280;16320;53.954;9.506;2023-06-05T01:56:24;102117.50;;;9.61;100.00
29315;BME280;16320;53.954;9.506;2023-06-05T01:59:28;102115.78;;;9.58;100.00
29315;BME280;16320;53.954;9.506;2023-06-05T02:02:33;102112.34;;;9.56;100.00
29315;BME280;16320;53.954;9.506;2023-06-05T02:05:38;102110.63;;;9.55;100.00
29315;BME280;16320;53.954;9.506;2023-06-05T02:08:42;102118.75;;;9.46;100.00
29315;BME280;16320;53.954;9.506;2023-06-05T02:11:47;102113.50;;;9.46;100.00
29315;BME280;16320;53.954;9.506;2023-06-05T02:14:51;102115.19;;;9.47;100.00
29315;BME280;16320;53.954;9.506;2023-06-05T02:17:56;102108.31;;;9.43;100.00
29315;BME280;16320;53.954;9.506;2023-06-05T02:21:01;102111.75;;;9.45;100.00
29315;BME280;16320;53.954;9.506;2023-06-05T02:24:06;102115.28;;;9.44;100.00
29315;BME280;16320;53.954;9.506;2023-06-05T02:27:11;102112.69;;;9.42;100.00
29315;BME280;16320;53.954;9.506;2023-06-05T02:30:17;102104.97;;;9.38;100.00
29315;BME280;16320;53.954;9.506;2023-06-05T02:33:21;102103.22;;;9.37;100.00
29315;BME280;16320;53.954;9.506;2023-06-05T02:36:27;102098.91;;;9.34;100.00
29315;BME280;16320;53.954;9.506;2023-06-05T02:39:37;102089.38;;;9.31;100.00
29315;BME280;16320;53.954;9.506;2023-06-05T02:42:41;102097.22;;;9.31;100.00
29315;BME280;16320;53.954;9.506;2023-06-05T02:45:45;102094.56;;;9.33;100.00
29315;BME280;16320;53.954;9.506;2023-06-05T02:48:53;102102.25;;;9.41;100.00
29315;BME280;16320;53.954;9.506;2023-06-05T02:51:58;102101.19;;;9.48;100.00
29315;BME280;16320;53.954;9.506;2023-06-05T02:55:02;102102.00;;;9.50;100.00
29315;BME280;16320;53.954;9.506;2023-06-05T02:58:08;102101.19;;;9.48;100.00
29315;BME280;16320;53.954;9.506;2023-06-05T03:01:13;102105.53;;;9.50;100.00
29315;BME280;16320;53.954;9.506;2023-06-05T03:04:18;102104.63;;;9.50;100.00
29315;BME280;16320;53.954;9.506;2023-06-05T03:07:25;102098.66;;;9.45;100.00
29315;BME280;16320;53.954;9.506;2023-06-05T03:10:30;102096.84;;;9.47;100.00
29315;BME280;16320;53.954;9.506;2023-06-05T03:13:35;102100.50;;;9.41;100.00
29315;BME280;16320;53.954;9.506;2023-06-05T03:16:39;102096.25;;;9.35;100.00
29315;BME280;16320;53.954;9.506;2023-06-05T03:19:47;102092.06;;;9.28;100.00
29315;BME280;16320;53.954;9.506;2023-06-05T03:22:51;102101.72;;;9.26;100.00
29315;BME280;16320;53.954;9.506;2023-06-05T03:25:56;102087.75;;;9.26;100.00
29315;BME280;16320;53.954;9.506;2023-06-05T03:29:01;102099.13;;;9.26;100.00
29315;BME280;16320;53.954;9.506;2023-06-05T03:32:05;102099.94;;;9.28;100.00
29315;BME280;16320;53.954;9.506;2023-06-05T03:35:09;102101.72;;;9.26;100.00
29315;BME280;16320;53.954;9.506;2023-06-05T03:38:14;102107.13;;;9.20;100.00
29315;BME280;16320;53.954;9.506;2023-06-05T03:41:18;102111.31;;;9.27;100.00
29315;BME280;16320;53.954;9.506;2023-06-05T03:44:23;102117.41;;;9.29;100.00
29315;BME280;16320;53.954;9.506;2023-06-05T03:47:28;102113.94;;;9.27;100.00
29315;BME280;16320;53.954;9.506;2023-06-05T03:50:32;102111.06;;;9.38;100.00
29315;BME280;16320;53.954;9.506;2023-06-05T03:53:41;102124.94;;;9.42;100.00
29315;BME280;16320;53.954;9.506;2023-06-05T03:56:47;102115.38;;;9.41;100.00
29315;BME280;16320;53.954;9.506;2023-06-05T03:59:54;102115.22;;;9.45;100.00
29315;BME280;16320;53.954;9.506;2023-06-05T04:02:58;102125.63;;;9.50;100.00
29315;BME280;16320;53.954;9.506;2023-06-05T04:06:04;102120.31;;;9.53;100.00
29315;BME280;16320;53.954;9.506;2023-06-05T04:09:09;102126.34;;;9.55;100.00
29315;BME280;16320;53.954;9.506;2023-06-05T04:12:16;102130.75;;;9.55;100.00
29315;BME280;16320;53.954;9.506;2023-06-05T04:15:24;102116.84;;;9.51;100.00
29315;BME280;16320;53.954;9.506;2023-06-05T04:18:29;102128.19;;;9.51;100.00
29315;BME280;16320;53.954;9.506;2023-06-05T04:21:34;102125.53;;;9.53;100.00
29315;BME280;16320;53.954;9.506;2023-06-05T04:24:40;102129.88;;;9.56;100.00
29315;BME280;16320;53.954;9.506;2023-06-05T04:27:48;102125.47;;;9.56;100.00
29315;BME280;16320;53.954;9.506;2023-06-05T04:30:53;102128.97;;;9.55;100.00
29315;BME280;16320;53.954;9.506;2023-06-05T04:33:59;102133.34;;;9.56;100.00
29315;BME280;16320;53.954;9.506;2023-06-05T04:37:06;102127.31;;;9.52;100.00
29315;BME280;16320;53.954;9.506;2023-06-05T04:40:10;102128.97;;;9.55;100.00
29315;BME280;16320;53.954;9.506;2023-06-05T04:43:14;102134.13;;;9.60;100.00
29315;BME280;16320;53.954;9.506;2023-06-05T04:46:19;102133.13;;;9.65;100.00
29315;BME280;16320;53.954;9.506;2023-06-05T04:49:23;102134.75;;;9.69;100.00
29315;BME280;16320;53.954;9.506;2023-06-05T04:52:28;102130.34;;;9.71;100.00
29315;BME280;16320;53.954;9.506;2023-06-05T04:55:33;102130.09;;;9.81;100.00
29315;BME280;16320;53.954;9.506;2023-06-05T04:58:39;102132.59;;;9.85;100.00
29315;BME280;16320;53.954;9.506;2023-06-05T05:01:44;102131.59;;;9.91;100.00
29315;BME280;16320;53.954;9.506;2023-06-05T05:04:48;102120.16;;;9.92;100.00
29315;BME280;16320;53.954;9.506;2023-06-05T05:07:53;102128.81;;;9.96;100.00
29315;BME280;16320;53.954;9.506;2023-06-05T05:11:00;102128.75;;;9.99;100.00
29315;BME280;16320;53.954;9.506;2023-06-05T05:14:05;102129.34;;;10.08;100.00
29315;BME280;16320;53.954;9.506;2023-06-05T05:17:10;102137.88;;;10.17;100.00
29315;BME280;16320;53.954;9.506;2023-06-05T05:20:14;102136.91;;;10.21;100.00
29315;BME280;16320;53.954;9.506;2023-06-05T05:23:18;102139.31;;;10.29;100.00
29315;BME280;16320;53.954;9.506;2023-06-05T05:26:25;102145.94;;;10.43;100.00
29315;BME280;16320;53.954;9.506;2023-06-05T05:29:30;102137.06;;;10.48;100.00
29315;BME280;16320;53.954;9.506;2023-06-05T05:32:37;102142.06;;;10.57;100.00
29315;BME280;16320;53.954;9.506;2023-06-05T05:35:41;102145.34;;;10.63;100.00
29315;BME280;16320;53.954;9.506;2023-06-05T05:38:48;102144.34;;;10.69;100.00
29315;BME280;16320;53.954;9.506;2023-06-05T05:41:53;102149.25;;;10.80;100.00
29315;BME280;16320;53.954;9.506;2023-06-05T05:44:57;102150.81;;;10.87;100.00
29315;BME280;16320;53.954;9.506;2023-06-05T05:48:02;102149.66;;;10.96;100.00
29315;BME280;16320;53.954;9.506;2023-06-05T05:51:06;102145.72;;;11.09;100.00
29315;BME280;16320;53.954;9.506;2023-06-05T05:54:12;102147.28;;;11.16;100.00
29315;BME280;16320;53.954;9.506;2023-06-05T05:57:16;102152.19;;;11.27;100.00
29315;BME280;16320;53.954;9.506;2023-06-05T06:00:21;102144.84;;;11.37;100.00
29315;BME280;16320;53.954;9.506;2023-06-05T06:03:26;102150.72;;;11.45;100.00
29315;BME280;16320;53.954;9.506;2023-06-05T06:06:35;102144.47;;;11.49;100.00
29315;BME280;16320;53.954;9.506;2023-06-05T06:09:42;102144.06;;;11.62;100.00
29315;BME280;16320;53.954;9.506;2023-06-05T06:12:47;102142.13;;;11.67;100.00
29315;BME280;16320;53.954;9.506;2023-06-05T06:15:51;102133.97;;;11.75;100.00
29315;BME280;16320;53.954;9.506;2023-06-05T06:18:56;102145.88;;;11.86;100.00
29315;BME280;16320;53.954;9.506;2023-06-05T06:22:02;102141.34;;;11.92;100.00
29315;BME280;16320;53.954;9.506;2023-06-05T06:25:10;102142.81;;;11.99;100.00
29315;BME280;16320;53.954;9.506;2023-06-05T06:28:15;102132.78;;;12.10;100.00
29315;BME280;16320;53.954;9.506;2023-06-05T06:31:21;102133.34;;;12.18;100.00
29315;BME280;16320;53.954;9.506;2023-06-05T06:34:26;102132.28;;;12.24;100.00
29315;BME280;16320;53.954;9.506;2023-06-05T06:37:31;102136.25;;;12.36;100.00
29315;BME280;16320;53.954;9.506;2023-06-05T06:40:35;102129.78;;;12.44;100.00
29315;BME280;16320;53.954;9.506;2023-06-05T06:43:39;102128.91;;;12.44;100.00
29315;BME280;16320;53.954;9.506;2023-06-05T06:46:44;102120.56;;;12.56;100.00
29315;BME280;16320;53.954;9.506;2023-06-05T06:49:49;102121.97;;;12.65;100.00
29315;BME280;16320;53.954;9.506;2023-06-05T06:52:53;102125.91;;;12.77;100.00
29315;BME280;16320;53.954;9.506;2023-06-05T06:55:57;102138.75;;;12.86;100.00
29315;BME280;16320;53.954;9.506;2023-06-05T06:59:14;102121.63;;;12.96;100.00
29315;BME280;16320;53.954;9.506;2023-06-05T07:02:21;102125.09;;;12.98;100.00
29315;BME280;16320;53.954;9.506;2023-06-05T07:05:26;102114.16;;;13.08;100.00
29315;BME280;16320;53.954;9.506;2023-06-05T07:08:32;102120.94;;;13.15;100.00
29315;BME280;16320;53.954;9.506;2023-06-05T07:11:37;102124.22;;;13.20;100.00
29315;BME280;16320;53.954;9.506;2023-06-05T07:14:47;102120.13;;;13.35;100.00
29315;BME280;16320;53.954;9.506;2023-06-05T07:17:52;102113.41;;;13.48;100.00
29315;BME280;16320;53.954;9.506;2023-06-05T07:20:56;102110.34;;;13.59;100.00
29315;BME280;16320;53.954;9.506;2023-06-05T07:24:01;102100.25;;;13.69;100.00
29315;BME280;16320;53.954;9.506;2023-06-05T07:27:06;102096.63;;;13.71;100.00
29315;BME280;16320;53.954;9.506;2023-06-05T07:30:12;102097.41;;;13.73;100.00
29315;BME280;16320;53.954;9.506;2023-06-05T07:33:18;102105.78;;;13.83;100.00
29315;BME280;16320;53.954;9.506;2023-06-05T07:36:33;102100.00;;;13.96;100.00
29315;BME280;16320;53.954;9.506;2023-06-05T07:39:37;102092.34;;;14.08;100.00
29315;BME280;16320;53.954;9.506;2023-06-05T07:42:42;102079.69;;;14.17;100.00
29315;BME280;16320;53.954;9.506;2023-06-05T07:45:47;102072.66;;;14.16;100.00
29315;BME280;16320;53.954;9.506;2023-06-05T07:48:51;102078.13;;;14.32;100.00
29315;BME280;16320;53.954;9.506;2023-06-05T07:51:56;102080.56;;;14.36;100.00
29315;BME280;16320;53.954;9.506;2023-06-05T07:55:04;102080.63;;;14.35;100.00
29315;BME280;16320;53.954;9.506;2023-06-05T07:58:09;102084.41;;;14.48;100.00
29315;BME280;16320;53.954;9.506;2023-06-05T08:01:15;102079.97;;;14.49;100.00
29315;BME280;16320;53.954;9.506;2023-06-05T08:04:19;102087.38;;;14.61;100.00
29315;BME280;16320;53.954;9.506;2023-06-05T08:07:26;102078.28;;;14.67;100.00
29315;BME280;16320;53.954;9.506;2023-06-05T08:10:31;102079.19;;;14.85;100.00
29315;BME280;16320;53.954;9.506;2023-06-05T08:13:37;102065.75;;;14.89;100.00
29315;BME280;16320;53.954;9.506;2023-06-05T08:16:43;102076.03;;;14.95;100.00
29315;BME280;16320;53.954;9.506;2023-06-05T08:19:49;102075.66;;;15.03;100.00
29315;BME280;16320;53.954;9.506;2023-06-05T08:22:55;102080.94;;;15.03;100.00
29315;BME280;16320;53.954;9.506;2023-06-05T08:26:02;102084.22;;;15.08;100.00
29315;BME280;16320;53.954;9.506;2023-06-05T08:29:14;102082.91;;;15.17;100.00
29315;BME280;16320;53.954;9.506;2023-06-05T08:32:20;102065.88;;;15.23;100.00
29315;BME280;16320;53.954;9.506;2023-06-05T08:35:26;102045.63;;;15.39;100.00
29315;BME280;16320;53.954;9.506;2023-06-05T08:38:31;102055.91;;;15.28;100.00
29315;BME280;16320;53.954;9.506;2023-06-05T08:41:36;102049.59;;;15.48;100.00
29315;BME280;16320;53.954;9.506;2023-06-05T08:44:42;102038.16;;;15.65;100.00
29315;BME280;16320;53.954;9.506;2023-06-05T08:48:05;102042.00;;;15.75;100.00
29315;BME280;16320;53.954;9.506;2023-06-05T08:51:15;102050.28;;;15.69;100.00
29315;BME280;16320;53.954;9.506;2023-06-05T08:54:20;102060.19;;;15.83;100.00
29315;BME280;16320;53.954;9.506;2023-06-05T08:57:25;102060.72;;;15.89;100.00
29315;BME280;16320;53.954;9.506;2023-06-05T09:00:30;102060.06;;;16.02;100.00
29315;BME280;16320;53.954;9.506;2023-06-05T09:03:34;102051.19;;;16.03;100.00
29315;BME280;16320;53.954;9.506;2023-06-05T09:06:38;102054.28;;;16.11;100.00
29315;BME280;16320;53.954;9.506;2023-06-05T09:09:43;102050.53;;;16.15;100.00
29315;BME280;16320;53.954;9.506;2023-06-05T09:13:03;102048.16;;;16.26;100.00
29315;BME280;16320;53.954;9.506;2023-06-05T09:16:08;102038.75;;;16.37;100.00
29315;BME280;16320;53.954;9.506;2023-06-05T09:19:13;102039.59;;;16.37;100.00
29315;BME280;16320;53.954;9.506;2023-06-05T09:22:32;102037.00;;;16.36;100.00
29315;BME280;16320;53.954;9.506;2023-06-05T09:25:47;102031.22;;;16.45;100.00
29315;BME280;16320;53.954;9.506;2023-06-05T09:28:55;102034.28;;;16.53;100.00
29315;BME280;16320;53.954;9.506;2023-06-05T09:32:02;102029.81;;;16.70;100.00
29315;BME280;16320;53.954;9.506;2023-06-05T09:35:16;102018.53;;;16.98;100.00
29315;BME280;16320;53.954;9.506;2023-06-05T09:38:27;102014.81;;;17.00;100.00
29315;BME280;16320;53.954;9.506;2023-06-05T09:41:45;102008.59;;;17.01;100.00
29315;BME280;16320;53.954;9.506;2023-06-05T09:44:59;102006.16;;;17.13;100.00
29315;BME280;16320;53.954;9.506;2023-06-05T09:48:15;102014.03;;;17.14;100.00
29315;BME280;16320;53.954;9.506;2023-06-05T09:51:20;101999.78;;;17.15;100.00
29315;BME280;16320;53.954;9.506;2023-06-05T09:54:29;101996.69;;;17.23;100.00
29315;BME280;16320;53.954;9.506;2023-06-05T09:57:34;101994.59;;;17.28;100.00
29315;BME280;16320;53.954;9.506;2023-06-05T10:00:41;102006.78;;;17.47;100.00
29315;BME280;16320;53.954;9.506;2023-06-05T10:07:01;101981.84;;;17.78;100.00
29315;BME280;16320;53.954;9.506;2023-06-05T10:10:08;101983.47;;;17.81;100.00
29315;BME280;16320;53.954;9.506;2023-06-05T10:13:14;101982.69;;;17.79;100.00
29315;BME280;16320;53.954;9.506;2023-06-05T10:16:22;101980.03;;;17.79;100.00
29315;BME280;16320;53.954;9.506;2023-06-05T10:19:30;101979.94;;;17.80;100.00
29315;BME280;16320;53.954;9.506;2023-06-05T10:22:35;101984.44;;;17.94;100.00
29315;BME280;16320;53.954;9.506;2023-06-05T10:25:46;101991.44;;;18.09;100.00
29315;BME280;16320;53.954;9.506;2023-06-05T10:33:02;101975.50;;;18.37;100.00
29315;BME280;16320;53.954;9.506;2023-06-05T10:39:46;101944.53;;;18.63;100.00
29315;BME280;16320;53.954;9.506;2023-06-05T10:42:51;101938.94;;;18.80;100.00
29315;BME280;16320;53.954;9.506;2023-06-05T10:45:58;101954.97;;;18.93;100.00
29315;BME280;16320;53.954;9.506;2023-06-05T10:49:18;101949.56;;;19.08;100.00
29315;BME280;16320;53.954;9.506;2023-06-05T10:52:37;101929.53;;;19.41;100.00
29315;BME280;16320;53.954;9.506;2023-06-05T10:55:42;101941.13;;;19.78;100.00
29315;BME280;16320;53.954;9.506;2023-06-05T10:59:13;101925.13;;;20.15;100.00
29315;BME280;16320;53.954;9.506;2023-06-05T11:02:22;101919.91;;;20.62;100.00
29315;BME280;16320;53.954;9.506;2023-06-05T11:05:29;101914.81;;;21.17;100.00
29315;BME280;16320;53.954;9.506;2023-06-05T11:08:33;101908.91;;;21.36;100.00
29315;BME280;16320;53.954;9.506;2023-06-05T11:12:01;101905.78;;;21.53;100.00
29315;BME280;16320;53.954;9.506;2023-06-05T11:18:33;101905.38;;;21.47;100.00
29315;BME280;16320;53.954;9.506;2023-06-05T11:22:08;101889.81;;;21.40;100.00
29315;BME280;16320;53.954;9.506;2023-06-05T11:28:41;101899.06;;;21.59;100.00
29315;BME280;16320;53.954;9.506;2023-06-05T11:31:46;101883.88;;;21.71;100.00
29315;BME280;16320;53.954;9.506;2023-06-05T11:34:51;101878.28;;;21.74;100.00
29315;BME280;16320;53.954;9.506;2023-06-05T11:41:16;101875.91;;;22.03;100.00
29315;BME280;16320;53.954;9.506;2023-06-05T11:44:33;101882.03;;;21.83;100.00
29315;BME280;16320;53.954;9.506;2023-06-05T11:47:40;101878.91;;;21.66;100.00
29315;BME280;16320;53.954;9.506;2023-06-05T11:50:53;101875.22;;;21.79;100.00
29315;BME280;16320;53.954;9.506;2023-06-05T11:53:58;101875.91;;;22.03;100.00
29315;BME280;16320;53.954;9.506;2023-06-05T11:57:06;101870.22;;;22.29;100.00
29315;BME280;16320;53.954;9.506;2023-06-05T12:00:23;101858.38;;;22.64;100.00
29315;BME280;16320;53.954;9.506;2023-06-05T12:04:05;101859.16;;;22.55;100.00
29315;BME280;16320;53.954;9.506;2023-06-05T12:07:36;101856.81;;;22.40;100.00
29315;BME280;16320;53.954;9.506;2023-06-05T12:10:41;101860.03;;;22.55;100.00
29315;BME280;16320;53.954;9.506;2023-06-05T12:13:51;101847.28;;;22.69;100.00
29315;BME280;16320;53.954;9.506;2023-06-05T12:16:56;101848.56;;;22.74;100.00
29315;BME280;16320;53.954;9.506;2023-06-05T12:20:05;101844.78;;;22.77;100.00
29315;BME280;16320;53.954;9.506;2023-06-05T12:23:35;101846.28;;;22.70;100.00
29315;BME280;16320;53.954;9.506;2023-06-05T12:29:57;101841.69;;;22.51;100.00
29315;BME280;16320;53.954;9.506;2023-06-05T12:33:05;101834.63;;;22.49;100.00
29315;BME280;16320;53.954;9.506;2023-06-05T12:36:09;101827.03;;;22.55;100.00
29315;BME280;16320;53.954;9.506;2023-06-05T12:39:15;101833.25;;;22.76;100.00
29315;BME280;16320;53.954;9.506;2023-06-05T12:42:23;101828.16;;;23.04;100.00
29315;BME280;16320;53.954;9.506;2023-06-05T12:45:27;101822.00;;;23.13;100.00
29315;BME280;16320;53.954;9.506;2023-06-05T12:48:31;101818.50;;;22.92;100.00
29315;BME280;16320;53.954;9.506;2023-06-05T12:51:35;101824.72;;;22.71;100.00
29315;BME280;16320;53.954;9.506;2023-06-05T12:54:40;101823.44;;;22.44;100.00
29315;BME280;16320;53.954;9.506;2023-06-05T12:57:45;101823.06;;;22.17;100.00
29315;BME280;16320;53.954;9.506;2023-06-05T13:00:50;101821.66;;;22.01;100.00
29315;BME280;16320;53.954;9.506;2023-06-05T13:03:54;101811.25;;;21.87;100.00
29315;BME280;16320;53.954;9.506;2023-06-05T13:06:58;101817.13;;;21.81;100.00
29315;BME280;16320;53.954;9.506;2023-06-05T13:10:07;101823.88;;;21.52;100.00
29315;BME280;16320;53.954;9.506;2023-06-05T13:13:11;101821.81;;;21.45;100.00
29315;BME280;16320;53.954;9.506;2023-06-05T13:16:17;101818.88;;;21.36;100.00
29315;BME280;16320;53.954;9.506;2023-06-05T13:19:22;101819.88;;;21.35;100.00
29315;BME280;16320;53.954;9.506;2023-06-05T13:22:26;101808.69;;;21.30;100.00
29315;BME280;16320;53.954;9.506;2023-06-05T13:25:30;101815.50;;;21.23;100.00
29315;BME280;16320;53.954;9.506;2023-06-05T13:28:35;101804.31;;;21.29;100.00
29315;BME280;16320;53.954;9.506;2023-06-05T13:31:42;101803.00;;;21.01;100.00
29315;BME280;16320;53.954;9.506;2023-06-05T13:34:47;101808.59;;;20.98;100.00
29315;BME280;16320;53.954;9.506;2023-06-05T13:37:52;101805.91;;;20.98;100.00
29315;BME280;16320;53.954;9.506;2023-06-05T13:40:57;101797.66;;;20.78;100.00
29315;BME280;16320;53.954;9.506;2023-06-05T13:44:01;101789.28;;;20.83;100.00
29315;BME280;16320;53.954;9.506;2023-06-05T13:47:06;101794.22;;;20.76;100.00
29315;BME280;16320;53.954;9.506;2023-06-05T13:50:13;101788.53;;;20.70;100.00
29315;BME280;16320;53.954;9.506;2023-06-05T13:53:17;101785.81;;;20.58;100.00
29315;BME280;16320;53.954;9.506;2023-06-05T13:56:21;101784.72;;;20.61;100.00
29315;BME280;16320;53.954;9.506;2023-06-05T13:59:26;101780.28;;;20.73;100.00
29315;BME280;16320;53.954;9.506;2023-06-05T14:02:32;101770.84;;;20.80;100.00
29315;BME280;16320;53.954;9.506;2023-06-05T14:05:37;101778.84;;;20.80;100.00
29315;BME280;16320;53.954;9.506;2023-06-05T14:08:41;101771.78;;;20.79;100.00
29315;BME280;16320;53.954;9.506;2023-06-05T14:11:46;101782.47;;;20.79;100.00
29315;BME280;16320;53.954;9.506;2023-06-05T14:14:50;101770.59;;;20.83;100.00
29315;BME280;16320;53.954;9.506;2023-06-05T14:18:01;101769.59;;;20.84;100.00
29315;BME280;16320;53.954;9.506;2023-06-05T14:21:11;101768.66;;;20.85;100.00
29315;BME280;16320;53.954;9.506;2023-06-05T14:24:16;101761.94;;;21.02;100.00
29315;BME280;16320;53.954;9.506;2023-06-05T14:27:20;101765.50;;;21.02;100.00
29315;BME280;16320;53.954;9.506;2023-06-05T14:30:25;101763.28;;;21.19;100.00
29315;BME280;16320;53.954;9.506;2023-06-05T14:33:31;101764.00;;;21.21;100.00
29315;BME280;16320;53.954;9.506;2023-06-05T14:36:35;101757.47;;;21.25;100.00
29315;BME280;16320;53.954;9.506;2023-06-05T14:39:57;101759.75;;;21.07;100.00
29315;BME280;16320;53.954;9.506;2023-06-05T14:43:01;101754.81;;;21.14;100.00
29315;BME280;16320;53.954;9.506;2023-06-05T14:46:06;101761.47;;;20.97;100.00
29315;BME280;16320;53.954;9.506;2023-06-05T14:49:11;101758.19;;;21.05;100.00
29315;BME280;16320;53.954;9.506;2023-06-05T14:52:16;101757.47;;;21.02;100.00
29315;BME280;16320;53.954;9.506;2023-06-05T14:55:20;101755.91;;;21.00;100.00
29315;BME280;16320;53.954;9.506;2023-06-05T14:58:25;101749.59;;;21.01;100.00
29315;BME280;16320;53.954;9.506;2023-06-05T15:01:29;101755.06;;;20.99;100.00
29315;BME280;16320;53.954;9.506;2023-06-05T15:04:34;101742.41;;;20.90;100.00
29315;BME280;16320;53.954;9.506;2023-06-05T15:07:41;101743.03;;;20.94;100.00
29315;BME280;16320;53.954;9.506;2023-06-05T15:10:46;101742.66;;;20.76;100.00
29315;BME280;16320;53.954;9.506;2023-06-05T15:13:50;101746.16;;;20.76;100.00
29315;BME280;16320;53.954;9.506;2023-06-05T15:16:55;101741.81;;;20.75;100.00
29315;BME280;16320;53.954;9.506;2023-06-05T15:20:00;101740.47;;;20.70;100.00
29315;BME280;16320;53.954;9.506;2023-06-05T15:23:05;101742.84;;;20.61;100.00
29315;BME280;16320;53.954;9.506;2023-06-05T15:26:19;101736.44;;;20.53;100.00
29315;BME280;16320;53.954;9.506;2023-06-05T15:29:24;101731.69;;;20.56;100.00
29315;BME280;16320;53.954;9.506;2023-06-05T15:32:29;101733.63;;;20.43;100.00
29315;BME280;16320;53.954;9.506;2023-06-05T15:35:35;101736.03;;;20.35;100.00
29315;BME280;16320;53.954;9.506;2023-06-05T15:38:39;101735.28;;;20.10;100.00
29315;BME280;16320;53.954;9.506;2023-06-05T15:41:44;101723.63;;;20.22;100.00
29315;BME280;16320;53.954;9.506;2023-06-05T15:44:51;101731.13;;;20.06;100.00
29315;BME280;16320;53.954;9.506;2023-06-05T15:47:56;101731.34;;;20.03;100.00
29315;BME280;16320;53.954;9.506;2023-06-05T15:51:01;101731.34;;;20.03;100.00
29315;BME280;16320;53.954;9.506;2023-06-05T15:54:05;101729.19;;;20.08;100.00
29315;BME280;16320;53.954;9.506;2023-06-05T15:57:18;101729.66;;;20.02;100.00
29315;BME280;16320;53.954;9.506;2023-06-05T16:00:22;101733.53;;;19.98;100.00
29315;BME280;16320;53.954;9.506;2023-06-05T16:03:30;101733.53;;;19.98;100.00
29315;BME280;16320;53.954;9.506;2023-06-05T16:06:35;101724.56;;;19.99;100.00
29315;BME280;16320;53.954;9.506;2023-06-05T16:09:41;101726.00;;;20.03;100.00
29315;BME280;16320;53.954;9.506;2023-06-05T16:12:50;101722.63;;;20.01;100.00
29315;BME280;16320;53.954;9.506;2023-06-05T16:15:55;101733.13;;;19.91;100.00
29315;BME280;16320;53.954;9.506;2023-06-05T16:19:00;101731.75;;;19.85;100.00
29315;BME280;16320;53.954;9.506;2023-06-05T16:22:05;101731.25;;;19.80;100.00
29315;BME280;16320;53.954;9.506;2023-06-05T16:25:09;101728.13;;;19.62;100.00
29315;BME280;16320;53.954;9.506;2023-06-05T16:28:14;101731.13;;;19.57;100.00
29315;BME280;16320;53.954;9.506;2023-06-05T16:31:18;101725.84;;;19.45;100.00